sensor_id;sensor_type;location;lat;lon;timestamp;temperature;humidity
62912;DHT22;49111;51.028;4.218;2023-11-21T00:00:41;10.30;99.90
62912;DHT22;49111;51.028;4.218;2023-11-21T00:03:07;10.30;99.90
62912;DHT22;49111;51.028;4.218;2023-11-21T00:05:33;10.20;99.90
62912;DHT22;49111;51.028;4.218;2023-11-21T00:07:59;10.10;99.90
62912;DHT22;49111;51.028;4.218;2023-11-21T00:10:25;10.00;99.90
62912;DHT22;49111;51.028;4.218;2023-11-21T00:12:50;10.00;99.90
62912;DHT22;49111;51.028;4.218;2023-11-21T00:15:16;10.00;99.90
62912;DHT22;49111;51.028;4.218;2023-11-21T00:17:42;9.90;99.90
62912;DHT22;49111;51.028;4.218;2023-11-21T00:20:09;10.00;99.90
62912;DHT22;49111;51.028;4.218;2023-11-21T00:22:38;10.00;99.90
62912;DHT22;49111;51.028;4.218;2023-11-21T00:25:04;10.00;99.90
62912;DHT22;49111;51.028;4.218;2023-11-21T00:27:30;10.00;99.90
62912;DHT22;49111;51.028;4.218;2023-11-21T00:29:56;10.10;99.90
62912;DHT22;49111;51.028;4.218;2023-11-21T00:32:22;10.10;99.90
62912;DHT22;49111;51.028;4.218;2023-11-21T00:34:48;10.10;99.90
62912;DHT22;49111;51.028;4.218;2023-11-21T00:37:14;10.10;99.90
62912;DHT22;49111;51.028;4.218;2023-11-21T00:39:41;10.10;99.90
62912;DHT22;49111;51.028;4.218;2023-11-21T00:42:07;10.20;99.90
62912;DHT22;49111;51.028;4.218;2023-11-21T00:44:34;10.20;99.90
62912;DHT22;49111;51.028;4.218;2023-11-21T00:47:03;10.30;99.90
62912;DHT22;49111;51.028;4.218;2023-11-21T00:49:29;10.30;99.90
62912;DHT22;49111;51.028;4.218;2023-11-21T00:51:54;10.30;99.90
62912;DHT22;49111;51.028;4.218;2023-11-21T00:54:20;10.40;99.90
62912;DHT22;49111;51.028;4.218;2023-11-21T00:56:46;10.40;99.90
62912;DHT22;49111;51.028;4.218;2023-11-21T00:59:15;10.40;99.90
62912;DHT22;49111;51.028;4.218;2023-11-21T01:01:41;10.50;99.90
62912;DHT22;49111;51.028;4.218;2023-11-21T01:04:07;10.50;99.90
62912;DHT22;49111;51.028;4.218;2023-11-21T01:06:33;10.50;99.90
62912;DHT22;49111;51.028;4.218;2023-11-21T01:08:59;10.50;99.90
62912;DHT22;49111;51.028;4.218;2023-11-21T01:11:25;10.60;99.90
62912;DHT22;49111;51.028;4.218;2023-11-21T01:13:51;10.60;99.90
62912;DHT22;49111;51.028;4.218;2023-11-21T01:16:19;10.60;99.90
62912;DHT22;49111;51.028;4.218;2023-11-21T01:18:45;10.60;99.90
62912;DHT22;49111;51.028;4.218;2023-11-21T01:21:12;10.60;99.90
62912;DHT22;49111;51.028;4.218;2023-11-21T01:23:38;10.70;99.90
62912;DHT22;49111;51.028;4.218;2023-11-21T01:26:04;10.60;99.90
62912;DHT22;49111;51.028;4.218;2023-11-21T01:28:30;10.70;99.90
62912;DHT22;49111;51.028;4.218;2023-11-21T01:30:57;10.70;99.90
62912;DHT22;49111;51.028;4.218;2023-11-21T01:33:23;10.70;99.90
62912;DHT22;49111;51.028;4.218;2023-11-21T01:35:51;10.70;99.90
62912;DHT22;49111;51.028;4.218;2023-11-21T01:38:20;10.70;99.90
62912;DHT22;49111;51.028;4.218;2023-11-21T01:40:46;10.80;99.90
62912;DHT22;49111;51.028;4.218;2023-11-21T01:43:12;10.80;99.90
62912;DHT22;49111;51.028;4.218;2023-11-21T01:45:38;10.80;99.90
62912;DHT22;49111;51.028;4.218;2023-11-21T01:48:05;10.90;99.90
62912;DHT22;49111;51.028;4.218;2023-11-21T01:50:32;10.90;99.90
62912;DHT22;49111;51.028;4.218;2023-11-21T01:53:00;11.00;99.90
62912;DHT22;49111;51.028;4.218;2023-11-21T01:55:27;10.90;99.90
62912;DHT22;49111;51.028;4.218;2023-11-21T01:57:54;11.00;99.90
62912;DHT22;49111;51.028;4.218;2023-11-21T02:00:21;10.90;99.90
62912;DHT22;49111;51.028;4.218;2023-11-21T02:02:48;10.90;99.90
62912;DHT22;49111;51.028;4.218;2023-11-21T02:05:18;11.00;99.90
62912;DHT22;49111;51.028;4.218;2023-11-21T02:07:45;11.00;99.90
62912;DHT22;49111;51.028;4.218;2023-11-21T02:10:16;11.00;99.90
62912;DHT22;49111;51.028;4.218;2023-11-21T02:12:42;11.00;99.90
62912;DHT22;49111;51.028;4.218;2023-11-21T02:15:10;11.00;99.90
62912;DHT22;49111;51.028;4.218;2023-11-21T02:17:42;11.00;99.90
62912;DHT22;49111;51.028;4.218;2023-11-21T02:20:12;11.10;99.90
62912;DHT22;49111;51.028;4.218;2023-11-21T02:22:50;11.10;99.90
62912;DHT22;49111;51.028;4.218;2023-11-21T02:25:17;11.10;99.90
62912;DHT22;49111;51.028;4.218;2023-11-21T02:27:43;11.10;99.90
62912;DHT22;49111;51.028;4.218;2023-11-21T02:30:14;11.10;99.90
62912;DHT22;49111;51.028;4.218;2023-11-21T02:32:41;11.10;99.90
62912;DHT22;49111;51.028;4.218;2023-11-21T02:35:08;11.10;99.90
62912;DHT22;49111;51.028;4.218;2023-11-21T02:37:35;11.10;99.90
62912;DHT22;49111;51.028;4.218;2023-11-21T02:40:04;11.10;99.90
62912;DHT22;49111;51.028;4.218;2023-11-21T02:42:33;11.10;99.90
62912;DHT22;49111;51.028;4.218;2023-11-21T02:44:59;11.10;99.90
62912;DHT22;49111;51.028;4.218;2023-11-21T02:47:24;11.10;99.90
62912;DHT22;49111;51.028;4.218;2023-11-21T02:49:51;11.20;99.90
62912;DHT22;49111;51.028;4.218;2023-11-21T02:52:18;11.20;99.90
62912;DHT22;49111;51.028;4.218;2023-11-21T02:54:44;11.20;99.90
62912;DHT22;49111;51.028;4.218;2023-11-21T02:57:10;11.20;99.90
62912;DHT22;49111;51.028;4.218;2023-11-21T02:59:36;11.20;99.90
62912;DHT22;49111;51.028;4.218;2023-11-21T03:02:02;11.20;99.90
62912;DHT22;49111;51.028;4.218;2023-11-21T03:04:28;11.20;99.90
62912;DHT22;49111;51.028;4.218;2023-11-21T03:06:53;11.20;99.90
62912;DHT22;49111;51.028;4.218;2023-11-21T03:09:19;11.20;99.90
62912;DHT22;49111;51.028;4.218;2023-11-21T03:11:45;11.20;99.90
62912;DHT22;49111;51.028;4.218;2023-11-21T03:14:11;11.20;99.90
62912;DHT22;49111;51.028;4.218;2023-11-21T03:16:38;11.30;99.90
62912;DHT22;49111;51.028;4.218;2023-11-21T03:19:04;11.30;99.90
62912;DHT22;49111;51.028;4.218;2023-11-21T03:21:30;11.30;99.90
62912;DHT22;49111;51.028;4.218;2023-11-21T03:23:56;11.30;99.90
62912;DHT22;49111;51.028;4.218;2023-11-21T03:26:22;11.30;99.90
62912;DHT22;49111;51.028;4.218;2023-11-21T03:28:48;11.30;99.90
62912;DHT22;49111;51.028;4.218;2023-11-21T03:31:15;11.30;99.90
62912;DHT22;49111;51.028;4.218;2023-11-21T03:33:42;11.30;99.90
62912;DHT22;49111;51.028;4.218;2023-11-21T03:36:09;11.30;99.90
62912;DHT22;49111;51.028;4.218;2023-11-21T03:38:34;11.30;99.90
62912;DHT22;49111;51.028;4.218;2023-11-21T03:41:00;11.30;99.90
62912;DHT22;49111;51.028;4.218;2023-11-21T03:43:28;11.40;99.90
62912;DHT22;49111;51.028;4.218;2023-11-21T03:45:53;11.40;99.90
62912;DHT22;49111;51.028;4.218;2023-11-21T03:48:19;11.40;99.90
62912;DHT22;49111;51.028;4.218;2023-11-21T03:50:45;11.40;99.90
62912;DHT22;49111;51.028;4.218;2023-11-21T03:53:12;11.40;99.90
62912;DHT22;49111;51.028;4.218;2023-11-21T03:55:38;11.40;99.90
62912;DHT22;49111;51.028;4.218;2023-11-21T03:58:04;11.40;99.90
62912;DHT22;49111;51.028;4.218;2023-11-21T04:00:31;11.40;99.90
62912;DHT22;49111;51.028;4.218;2023-11-21T04:02:58;11.50;99.90
62912;DHT22;49111;51.028;4.218;2023-11-21T04:05:24;11.50;99.90
62912;DHT22;49111;51.028;4.218;2023-11-21T04:07:50;11.50;99.90
62912;DHT22;49111;51.028;4.218;2023-11-21T04:10:17;11.50;99.90
62912;DHT22;49111;51.028;4.218;2023-11-21T04:12:43;11.50;99.90
62912;DHT22;49111;51.028;4.218;2023-11-21T04:15:11;11.50;99.90
62912;DHT22;49111;51.028;4.218;2023-11-21T04:17:38;11.60;99.90
62912;DHT22;49111;51.028;4.218;2023-11-21T04:20:06;11.60;99.90
62912;DHT22;49111;51.028;4.218;2023-11-21T04:22:39;11.60;99.90
62912;DHT22;49111;51.028;4.218;2023-11-21T04:25:10;11.60;99.90
62912;DHT22;49111;51.028;4.218;2023-11-21T04:27:38;11.60;99.90
62912;DHT22;49111;51.028;4.218;2023-11-21T04:30:04;11.60;99.90
62912;DHT22;49111;51.028;4.218;2023-11-21T04:32:31;11.60;99.90
62912;DHT22;49111;51.028;4.218;2023-11-21T04:34:57;11.60;99.90
62912;DHT22;49111;51.028;4.218;2023-11-21T04:37:24;11.60;99.90
62912;DHT22;49111;51.028;4.218;2023-11-21T04:39:52;11.60;99.90
62912;DHT22;49111;51.028;4.218;2023-11-21T04:42:19;11.60;99.90
62912;DHT22;49111;51.028;4.218;2023-11-21T04:44:44;11.70;99.90
62912;DHT22;49111;51.028;4.218;2023-11-21T04:47:11;11.70;99.90
62912;DHT22;49111;51.028;4.218;2023-11-21T04:49:39;11.70;99.90
62912;DHT22;49111;51.028;4.218;2023-11-21T04:52:05;11.70;99.90
62912;DHT22;49111;51.028;4.218;2023-11-21T04:54:31;11.60;99.90
62912;DHT22;49111;51.028;4.218;2023-11-21T04:56:57;11.60;99.90
62912;DHT22;49111;51.028;4.218;2023-11-21T04:59:22;11.70;99.90
62912;DHT22;49111;51.028;4.218;2023-11-21T05:01:53;11.70;99.90
62912;DHT22;49111;51.028;4.218;2023-11-21T05:04:19;11.70;99.90
62912;DHT22;49111;51.028;4.218;2023-11-21T05:06:46;11.70;99.90
62912;DHT22;49111;51.028;4.218;2023-11-21T05:09:14;11.70;99.90
62912;DHT22;49111;51.028;4.218;2023-11-21T05:11:41;11.70;99.90
62912;DHT22;49111;51.028;4.218;2023-11-21T05:14:07;11.70;99.90
62912;DHT22;49111;51.028;4.218;2023-11-21T05:16:34;11.70;99.90
62912;DHT22;49111;51.028;4.218;2023-11-21T05:19:01;11.80;99.90
62912;DHT22;49111;51.028;4.218;2023-11-21T05:21:27;11.80;99.90
62912;DHT22;49111;51.028;4.218;2023-11-21T05:23:53;11.80;99.90
62912;DHT22;49111;51.028;4.218;2023-11-21T05:26:19;11.70;99.90
62912;DHT22;49111;51.028;4.218;2023-11-21T05:28:45;11.70;99.90
62912;DHT22;49111;51.028;4.218;2023-11-21T05:31:11;11.70;99.90
62912;DHT22;49111;51.028;4.218;2023-11-21T05:33:37;11.70;99.90
62912;DHT22;49111;51.028;4.218;2023-11-21T05:36:03;11.70;99.90
62912;DHT22;49111;51.028;4.218;2023-11-21T05:38:29;11.70;99.90
62912;DHT22;49111;51.028;4.218;2023-11-21T05:40:55;11.80;99.90
62912;DHT22;49111;51.028;4.218;2023-11-21T05:43:21;11.70;99.90
62912;DHT22;49111;51.028;4.218;2023-11-21T05:45:47;11.80;99.90
62912;DHT22;49111;51.028;4.218;2023-11-21T05:48:12;11.70;99.90
62912;DHT22;49111;51.028;4.218;2023-11-21T05:50:38;11.70;99.90
62912;DHT22;49111;51.028;4.218;2023-11-21T05:53:04;11.70;99.90
62912;DHT22;49111;51.028;4.218;2023-11-21T05:55:30;11.70;99.90
62912;DHT22;49111;51.028;4.218;2023-11-21T05:57:56;11.70;99.90
62912;DHT22;49111;51.028;4.218;2023-11-21T06:00:22;11.80;99.90
62912;DHT22;49111;51.028;4.218;2023-11-21T06:02:52;11.80;99.90
62912;DHT22;49111;51.028;4.218;2023-11-21T06:05:19;11.70;99.90
62912;DHT22;49111;51.028;4.218;2023-11-21T06:07:46;11.70;99.90
62912;DHT22;49111;51.028;4.218;2023-11-21T06:10:12;11.70;99.90
62912;DHT22;49111;51.028;4.218;2023-11-21T06:12:40;11.70;99.90
62912;DHT22;49111;51.028;4.218;2023-11-21T06:15:09;11.70;99.90
62912;DHT22;49111;51.028;4.218;2023-11-21T06:17:39;11.70;99.90
62912;DHT22;49111;51.028;4.218;2023-11-21T06:20:06;11.70;99.90
62912;DHT22;49111;51.028;4.218;2023-11-21T06:22:37;11.70;99.90
62912;DHT22;49111;51.028;4.218;2023-11-21T06:25:03;11.70;99.90
62912;DHT22;49111;51.028;4.218;2023-11-21T06:27:37;11.70;99.90
62912;DHT22;49111;51.028;4.218;2023-11-21T06:30:03;11.70;99.90
62912;DHT22;49111;51.028;4.218;2023-11-21T06:32:29;11.70;99.90
62912;DHT22;49111;51.028;4.218;2023-11-21T06:34:56;11.70;99.90
62912;DHT22;49111;51.028;4.218;2023-11-21T06:37:28;11.60;99.90
62912;DHT22;49111;51.028;4.218;2023-11-21T06:39:54;11.60;99.90
62912;DHT22;49111;51.028;4.218;2023-11-21T06:42:20;11.70;99.90
62912;DHT22;49111;51.028;4.218;2023-11-21T06:44:47;11.70;99.90
62912;DHT22;49111;51.028;4.218;2023-11-21T06:47:13;11.70;99.90
62912;DHT22;49111;51.028;4.218;2023-11-21T06:49:40;11.80;99.90
62912;DHT22;49111;51.028;4.218;2023-11-21T06:52:06;11.80;99.90
62912;DHT22;49111;51.028;4.218;2023-11-21T06:54:33;11.70;99.90
62912;DHT22;49111;51.028;4.218;2023-11-21T06:57:00;11.70;99.90
62912;DHT22;49111;51.028;4.218;2023-11-21T06:59:28;11.80;99.90
62912;DHT22;49111;51.028;4.218;2023-11-21T07:01:54;11.80;99.90
62912;DHT22;49111;51.028;4.218;2023-11-21T07:04:20;11.80;99.90
62912;DHT22;49111;51.028;4.218;2023-11-21T07:06:46;11.80;99.90
62912;DHT22;49111;51.028;4.218;2023-11-21T07:09:12;11.80;99.90
62912;DHT22;49111;51.028;4.218;2023-11-21T07:11:38;11.80;99.90
62912;DHT22;49111;51.028;4.218;2023-11-21T07:14:04;11.80;99.90
62912;DHT22;49111;51.028;4.218;2023-11-21T07:16:37;11.80;99.90
62912;DHT22;49111;51.028;4.218;2023-11-21T07:19:06;11.80;99.90
62912;DHT22;49111;51.028;4.218;2023-11-21T07:21:33;11.70;99.90
62912;DHT22;49111;51.028;4.218;2023-11-21T07:24:00;11.70;99.90
62912;DHT22;49111;51.028;4.218;2023-11-21T07:26:27;11.80;99.90
62912;DHT22;49111;51.028;4.218;2023-11-21T07:28:53;11.80;99.90
62912;DHT22;49111;51.028;4.218;2023-11-21T07:31:19;11.90;99.90
62912;DHT22;49111;51.028;4.218;2023-11-21T07:33:50;11.90;99.90
62912;DHT22;49111;51.028;4.218;2023-11-21T07:36:19;11.90;99.90
62912;DHT22;49111;51.028;4.218;2023-11-21T07:38:46;12.00;99.90
62912;DHT22;49111;51.028;4.218;2023-11-21T07:41:13;12.00;99.90
62912;DHT22;49111;51.028;4.218;2023-11-21T07:43:44;12.00;99.90
62912;DHT22;49111;51.028;4.218;2023-11-21T07:46:10;12.00;99.90
62912;DHT22;49111;51.028;4.218;2023-11-21T07:48:38;12.10;99.90
62912;DHT22;49111;51.028;4.218;2023-11-21T07:51:04;12.10;99.90
62912;DHT22;49111;51.028;4.218;2023-11-21T07:53:30;12.10;99.90
62912;DHT22;49111;51.028;4.218;2023-11-21T07:55:56;12.10;99.90
62912;DHT22;49111;51.028;4.218;2023-11-21T07:58:22;12.20;99.90
62912;DHT22;49111;51.028;4.218;2023-11-21T08:00:50;12.20;99.90
62912;DHT22;49111;51.028;4.218;2023-11-21T08:03:16;12.20;99.90
62912;DHT22;49111;51.028;4.218;2023-11-21T08:05:42;12.20;99.90
62912;DHT22;49111;51.028;4.218;2023-11-21T08:08:08;12.20;99.90
62912;DHT22;49111;51.028;4.218;2023-11-21T08:10:34;12.20;99.90
62912;DHT22;49111;51.028;4.218;2023-11-21T08:13:05;12.20;99.90
62912;DHT22;49111;51.028;4.218;2023-11-21T08:15:31;12.20;99.90
62912;DHT22;49111;51.028;4.218;2023-11-21T08:17:58;12.10;99.90
62912;DHT22;49111;51.028;4.218;2023-11-21T08:20:26;12.00;99.90
62912;DHT22;49111;51.028;4.218;2023-11-21T08:22:52;12.00;99.90
62912;DHT22;49111;51.028;4.218;2023-11-21T08:25:18;12.00;99.90
62912;DHT22;49111;51.028;4.218;2023-11-21T08:27:46;12.00;99.90
62912;DHT22;49111;51.028;4.218;2023-11-21T08:30:12;12.00;99.90
62912;DHT22;49111;51.028;4.218;2023-11-21T08:32:40;12.20;99.90
62912;DHT22;49111;51.028;4.218;2023-11-21T08:35:07;12.00;99.90
62912;DHT22;49111;51.028;4.218;2023-11-21T08:37:33;12.00;99.90
62912;DHT22;49111;51.028;4.218;2023-11-21T08:40:03;12.00;99.90
62912;DHT22;49111;51.028;4.218;2023-11-21T08:42:30;11.90;99.90
62912;DHT22;49111;51.028;4.218;2023-11-21T08:44:56;11.90;99.90
62912;DHT22;49111;51.028;4.218;2023-11-21T08:47:25;12.00;99.90
62912;DHT22;49111;51.028;4.218;2023-11-21T08:49:52;12.00;99.90
62912;DHT22;49111;51.028;4.218;2023-11-21T08:52:21;11.90;99.90
62912;DHT22;49111;51.028;4.218;2023-11-21T08:54:51;11.90;99.90
62912;DHT22;49111;51.028;4.218;2023-11-21T08:57:25;12.00;99.90
62912;DHT22;49111;51.028;4.218;2023-11-21T08:59:51;12.00;99.90
62912;DHT22;49111;51.028;4.218;2023-11-21T09:02:26;12.00;99.90
62912;DHT22;49111;51.028;4.218;2023-11-21T09:04:52;12.00;99.90
62912;DHT22;49111;51.028;4.218;2023-11-21T09:07:19;12.00;99.90
62912;DHT22;49111;51.028;4.218;2023-11-21T09:09:49;12.00;99.90
62912;DHT22;49111;51.028;4.218;2023-11-21T09:12:15;12.00;99.90
62912;DHT22;49111;51.028;4.218;2023-11-21T09:14:42;11.90;99.90
62912;DHT22;49111;51.028;4.218;2023-11-21T09:17:12;11.90;99.90
62912;DHT22;49111;51.028;4.218;2023-11-21T09:19:38;11.90;99.90
62912;DHT22;49111;51.028;4.218;2023-11-21T09:22:04;12.00;99.90
62912;DHT22;49111;51.028;4.218;2023-11-21T09:24:31;12.00;99.90
62912;DHT22;49111;51.028;4.218;2023-11-21T09:26:57;12.00;99.90
62912;DHT22;49111;51.028;4.218;2023-11-21T09:29:23;12.00;99.90
62912;DHT22;49111;51.028;4.218;2023-11-21T09:31:49;12.10;99.90
62912;DHT22;49111;51.028;4.218;2023-11-21T09:34:18;12.10;99.90
62912;DHT22;49111;51.028;4.218;2023-11-21T09:36:47;12.10;99.90
62912;DHT22;49111;51.028;4.218;2023-11-21T09:39:14;12.10;99.90
62912;DHT22;49111;51.028;4.218;2023-11-21T09:41:49;12.10;99.90
62912;DHT22;49111;51.028;4.218;2023-11-21T09:44:18;12.30;99.90
62912;DHT22;49111;51.028;4.218;2023-11-21T09:46:48;12.40;99.90
62912;DHT22;49111;51.028;4.218;2023-11-21T09:49:18;12.50;99.90
62912;DHT22;49111;51.028;4.218;2023-11-21T09:51:48;12.50;99.90
62912;DHT22;49111;51.028;4.218;2023-11-21T09:54:16;12.60;99.90
62912;DHT22;49111;51.028;4.218;2023-11-21T09:56:44;12.70;99.90
62912;DHT22;49111;51.028;4.218;2023-11-21T09:59:14;12.70;99.90
62912;DHT22;49111;51.028;4.218;2023-11-21T10:01:42;12.70;99.90
62912;DHT22;49111;51.028;4.218;2023-11-21T10:04:09;12.70;99.90
62912;DHT22;49111;51.028;4.218;2023-11-21T10:06:40;12.90;99.90
62912;DHT22;49111;51.028;4.218;2023-11-21T10:09:10;12.80;99.90
62912;DHT22;49111;51.028;4.218;2023-11-21T10:11:43;12.90;99.90
62912;DHT22;49111;51.028;4.218;2023-11-21T10:14:12;13.00;99.90
62912;DHT22;49111;51.028;4.218;2023-11-21T10:16:41;13.10;99.90
62912;DHT22;49111;51.028;4.218;2023-11-21T10:19:10;13.10;99.90
62912;DHT22;49111;51.028;4.218;2023-11-21T10:21:37;13.10;99.90
62912;DHT22;49111;51.028;4.218;2023-11-21T10:24:04;13.10;99.90
62912;DHT22;49111;51.028;4.218;2023-11-21T10:26:32;13.20;99.90
62912;DHT22;49111;51.028;4.218;2023-11-21T10:29:00;13.20;99.90
62912;DHT22;49111;51.028;4.218;2023-11-21T10:31:27;13.20;99.90
62912;DHT22;49111;51.028;4.218;2023-11-21T10:33:53;13.30;99.90
62912;DHT22;49111;51.028;4.218;2023-11-21T10:36:26;13.30;99.90
62912;DHT22;49111;51.028;4.218;2023-11-21T10:38:53;13.30;99.90
62912;DHT22;49111;51.028;4.218;2023-11-21T10:41:20;13.30;99.90
62912;DHT22;49111;51.028;4.218;2023-11-21T10:43:46;13.40;99.90
62912;DHT22;49111;51.028;4.218;2023-11-21T10:46:13;13.50;99.90
62912;DHT22;49111;51.028;4.218;2023-11-21T10:48:41;13.50;99.90
62912;DHT22;49111;51.028;4.218;2023-11-21T10:51:08;13.60;99.90
62912;DHT22;49111;51.028;4.218;2023-11-21T10:53:44;13.60;99.90
62912;DHT22;49111;51.028;4.218;2023-11-21T10:56:14;13.70;99.90
62912;DHT22;49111;51.028;4.218;2023-11-21T10:58:43;13.70;99.90
62912;DHT22;49111;51.028;4.218;2023-11-21T11:01:09;13.60;99.90
62912;DHT22;49111;51.028;4.218;2023-11-21T11:03:40;13.50;99.90
62912;DHT22;49111;51.028;4.218;2023-11-21T11:06:07;13.40;99.90
62912;DHT22;49111;51.028;4.218;2023-11-21T11:08:40;13.40;99.90
62912;DHT22;49111;51.028;4.218;2023-11-21T11:11:07;13.50;99.90
62912;DHT22;49111;51.028;4.218;2023-11-21T11:13:33;13.40;99.90
62912;DHT22;49111;51.028;4.218;2023-11-21T11:16:00;13.30;99.90
62912;DHT22;49111;51.028;4.218;2023-11-21T11:18:30;13.20;99.90
62912;DHT22;49111;51.028;4.218;2023-11-21T11:23:58;13.30;99.90
62912;DHT22;49111;51.028;4.218;2023-11-21T11:29:23;13.10;99.90
62912;DHT22;49111;51.028;4.218;2023-11-21T11:35:06;12.90;99.90
62912;DHT22;49111;51.028;4.218;2023-11-21T11:37:33;12.80;99.90
62912;DHT22;49111;51.028;4.218;2023-11-21T11:39:59;12.80;99.90
62912;DHT22;49111;51.028;4.218;2023-11-21T11:42:26;12.70;99.90
62912;DHT22;49111;51.028;4.218;2023-11-21T11:44:52;12.60;99.90
62912;DHT22;49111;51.028;4.218;2023-11-21T11:47:26;12.40;99.90
62912;DHT22;49111;51.028;4.218;2023-11-21T11:52:37;12.30;99.90
62912;DHT22;49111;51.028;4.218;2023-11-21T11:55:15;12.40;99.90
62912;DHT22;49111;51.028;4.218;2023-11-21T11:57:46;12.40;99.90
62912;DHT22;49111;51.028;4.218;2023-11-21T12:00:14;12.40;99.90
62912;DHT22;49111;51.028;4.218;2023-11-21T12:02:54;12.40;99.90
62912;DHT22;49111;51.028;4.218;2023-11-21T12:05:23;12.50;99.90
62912;DHT22;49111;51.028;4.218;2023-11-21T12:10:24;12.50;99.90
62912;DHT22;49111;51.028;4.218;2023-11-21T12:15:33;12.50;99.90
62912;DHT22;49111;51.028;4.218;2023-11-21T12:18:00;12.50;99.90
62912;DHT22;49111;51.028;4.218;2023-11-21T12:20:27;12.50;99.90
62912;DHT22;49111;51.028;4.218;2023-11-21T12:22:59;12.50;99.90
62912;DHT22;49111;51.028;4.218;2023-11-21T12:25:27;12.50;99.90
62912;DHT22;49111;51.028;4.218;2023-11-21T12:27:54;12.60;99.90
62912;DHT22;49111;51.028;4.218;2023-11-21T12:30:22;12.70;99.90
62912;DHT22;49111;51.028;4.218;2023-11-21T12:32:56;12.70;99.90
62912;DHT22;49111;51.028;4.218;2023-11-21T12:35:27;12.70;99.90
62912;DHT22;49111;51.028;4.218;2023-11-21T12:37:55;12.70;99.90
62912;DHT22;49111;51.028;4.218;2023-11-21T12:40:23;12.60;99.90
62912;DHT22;49111;51.028;4.218;2023-11-21T12:42:57;12.60;99.90
62912;DHT22;49111;51.028;4.218;2023-11-21T12:45:28;12.50;99.90
62912;DHT22;49111;51.028;4.218;2023-11-21T12:48:04;12.60;99.90
62912;DHT22;49111;51.028;4.218;2023-11-21T12:50:34;12.60;99.90
62912;DHT22;49111;51.028;4.218;2023-11-21T12:53:11;12.60;99.90
62912;DHT22;49111;51.028;4.218;2023-11-21T12:55:38;12.70;99.90
62912;DHT22;49111;51.028;4.218;2023-11-21T12:58:07;12.70;99.90
62912;DHT22;49111;51.028;4.218;2023-11-21T13:00:44;12.80;99.90
62912;DHT22;49111;51.028;4.218;2023-11-21T13:03:12;12.80;99.90
62912;DHT22;49111;51.028;4.218;2023-11-21T13:05:44;12.80;99.90
62912;DHT22;49111;51.028;4.218;2023-11-21T13:08:16;12.90;99.90
62912;DHT22;49111;51.028;4.218;2023-11-21T13:10:46;12.90;99.90
62912;DHT22;49111;51.028;4.218;2023-11-21T13:13:15;12.80;99.90
62912;DHT22;49111;51.028;4.218;2023-11-21T13:15:50;12.80;99.90
62912;DHT22;49111;51.028;4.218;2023-11-21T13:18:17;12.90;99.90
62912;DHT22;49111;51.028;4.218;2023-11-21T13:20:43;12.90;99.90
62912;DHT22;49111;51.028;4.218;2023-11-21T13:23:10;12.80;99.90
62912;DHT22;49111;51.028;4.218;2023-11-21T13:25:44;12.70;99.90
62912;DHT22;49111;51.028;4.218;2023-11-21T13:28:12;12.70;99.90
62912;DHT22;49111;51.028;4.218;2023-11-21T13:30:38;12.70;99.90
62912;DHT22;49111;51.028;4.218;2023-11-21T13:33:06;12.70;99.90
62912;DHT22;49111;51.028;4.218;2023-11-21T13:35:37;12.70;99.90
62912;DHT22;49111;51.028;4.218;2023-11-21T13:38:11;12.80;99.90
62912;DHT22;49111;51.028;4.218;2023-11-21T13:40:39;12.70;99.90
62912;DHT22;49111;51.028;4.218;2023-11-21T13:43:18;12.60;99.90
62912;DHT22;49111;51.028;4.218;2023-11-21T13:45:47;12.50;99.90
62912;DHT22;49111;51.028;4.218;2023-11-21T13:48:13;12.60;99.90
62912;DHT22;49111;51.028;4.218;2023-11-21T13:50:43;12.50;99.90
62912;DHT22;49111;51.028;4.218;2023-11-21T13:53:14;12.50;99.90
62912;DHT22;49111;51.028;4.218;2023-11-21T13:55:49;12.50;99.90
62912;DHT22;49111;51.028;4.218;2023-11-21T13:58:17;12.60;99.90
62912;DHT22;49111;51.028;4.218;2023-11-21T14:00:50;12.60;99.90
62912;DHT22;49111;51.028;4.218;2023-11-21T14:03:24;12.60;99.90
62912;DHT22;49111;51.028;4.218;2023-11-21T14:06:03;12.60;99.90
62912;DHT22;49111;51.028;4.218;2023-11-21T14:08:37;12.70;99.90
62912;DHT22;49111;51.028;4.218;2023-11-21T14:11:03;12.60;99.90
62912;DHT22;49111;51.028;4.218;2023-11-21T14:13:32;12.70;99.90
62912;DHT22;49111;51.028;4.218;2023-11-21T14:15:59;12.70;99.90
62912;DHT22;49111;51.028;4.218;2023-11-21T14:18:27;12.70;99.90
62912;DHT22;49111;51.028;4.218;2023-11-21T14:20:56;12.60;99.90
62912;DHT22;49111;51.028;4.218;2023-11-21T14:23:22;12.60;99.90
62912;DHT22;49111;51.028;4.218;2023-11-21T14:25:49;12.60;99.90
62912;DHT22;49111;51.028;4.218;2023-11-21T14:28:18;12.50;99.90
62912;DHT22;49111;51.028;4.218;2023-11-21T14:30:46;12.40;99.90
62912;DHT22;49111;51.028;4.218;2023-11-21T14:33:12;12.40;99.90
62912;DHT22;49111;51.028;4.218;2023-11-21T14:35:38;12.30;99.90
62912;DHT22;49111;51.028;4.218;2023-11-21T14:38:04;12.30;99.90
62912;DHT22;49111;51.028;4.218;2023-11-21T14:40:33;12.30;99.90
62912;DHT22;49111;51.028;4.218;2023-11-21T14:43:02;12.40;99.90
62912;DHT22;49111;51.028;4.218;2023-11-21T14:45:32;12.40;99.90
62912;DHT22;49111;51.028;4.218;2023-11-21T14:47:58;12.40;99.90
62912;DHT22;49111;51.028;4.218;2023-11-21T14:50:30;12.40;99.90
62912;DHT22;49111;51.028;4.218;2023-11-21T14:53:08;12.40;99.90
62912;DHT22;49111;51.028;4.218;2023-11-21T14:55:35;12.50;99.90
62912;DHT22;49111;51.028;4.218;2023-11-21T14:58:21;12.50;99.90
62912;DHT22;49111;51.028;4.218;2023-11-21T15:00:54;12.50;99.90
62912;DHT22;49111;51.028;4.218;2023-11-21T15:03:25;12.50;99.90
62912;DHT22;49111;51.028;4.218;2023-11-21T15:05:58;12.60;99.90
62912;DHT22;49111;51.028;4.218;2023-11-21T15:08:25;12.60;99.90
62912;DHT22;49111;51.028;4.218;2023-11-21T15:10:58;12.60;99.90
62912;DHT22;49111;51.028;4.218;2023-11-21T15:13:24;12.50;99.90
62912;DHT22;49111;51.028;4.218;2023-11-21T15:15:53;12.50;99.90
62912;DHT22;49111;51.028;4.218;2023-11-21T15:18:21;12.50;99.90
62912;DHT22;49111;51.028;4.218;2023-11-21T15:20:48;12.60;99.90
62912;DHT22;49111;51.028;4.218;2023-11-21T15:23:13;12.60;99.90
62912;DHT22;49111;51.028;4.218;2023-11-21T15:25:40;12.60;99.90
62912;DHT22;49111;51.028;4.218;2023-11-21T15:28:05;12.60;99.90
62912;DHT22;49111;51.028;4.218;2023-11-21T15:30:31;12.50;99.90
62912;DHT22;49111;51.028;4.218;2023-11-21T15:32:59;12.40;99.90
62912;DHT22;49111;51.028;4.218;2023-11-21T15:35:25;12.40;99.90
62912;DHT22;49111;51.028;4.218;2023-11-21T15:37:54;12.30;99.90
62912;DHT22;49111;51.028;4.218;2023-11-21T15:40:23;12.30;99.90
62912;DHT22;49111;51.028;4.218;2023-11-21T15:42:49;12.20;99.90
62912;DHT22;49111;51.028;4.218;2023-11-21T15:45:16;12.20;99.90
62912;DHT22;49111;51.028;4.218;2023-11-21T15:47:44;12.10;99.90
62912;DHT22;49111;51.028;4.218;2023-11-21T15:50:10;12.20;99.90